Time;durP1;ratioP1;P1;durP2;ratioP2;P2;SDS_P1;SDS_P2;PMS_P1;PMS_P2;Temp;Humidity;BMP_temperature;BMP_pressure;BME280_temperature;BME280_humidity;BME280_pressure;Samples;Min_cycle;Max_cycle;Signal;HPM_P1;HPM_P2
2021/10/31 00:00:58;;;;;;;;;;;;;;;21.40;55.00;100809.13;2099293;28;878;-55
2021/10/31 00:01:58;;;;;;;;;;;;;;;21.42;54.38;100811.78;2100110;28;989;-54
2021/10/31 00:02:58;;;;;;;;;;;;;;;21.43;54.48;100800.94;2100096;28;756;-54
2021/10/31 00:03:59;;;;;;;;;;;;;;;21.43;55.37;100794.69;2100079;28;910;-54
2021/10/31 00:04:59;;;;;;;;;;;;;;;21.42;54.48;100803.72;2100085;28;1249;-54
2021/10/31 00:05:59;;;;;;;;;;;;;;;21.42;54.17;100793.78;2099860;28;871;-54
2021/10/31 00:06:59;;;;;;;;;;;;;;;21.42;54.38;100792.94;2099880;28;819;-54
2021/10/31 00:07:59;;;;;;;;;;;;;;;21.45;55.22;100792.81;2100044;28;1910;-55
2021/10/31 00:09:00;;;;;;;;;;;;;;;21.42;54.15;100783.00;2100090;28;882;-54
2021/10/31 00:10:00;;;;;;;;;;;;;;;21.43;54.00;100789.28;2100007;28;756;-54
2021/10/31 00:11:01;;;;;;;;;;;;;;;21.41;54.91;100783.94;2100037;28;1017;-54
2021/10/31 00:12:02;;;;;;;;;;;;;;;21.40;55.21;100776.81;2099791;28;845;-55
2021/10/31 00:13:02;;;;;;;;;;;;;;;21.41;54.91;100780.41;2100031;28;1041;-54
2021/10/31 00:14:02;;;;;;;;;;;;;;;21.43;54.88;100771.28;2099984;28;981;-54
2021/10/31 00:15:03;;;;;;;;;;;;;;;21.39;55.26;100766.97;2099948;28;1020;-54
2021/10/31 00:16:04;;;;;;;;;;;;;;;21.40;55.06;100766.03;2099906;28;1318;-54
2021/10/31 00:17:04;;;;;;;;;;;;;;;21.38;54.27;100767.91;2099999;28;1028;-54
2021/10/31 00:18:04;;;;;;;;;;;;;;;21.39;55.21;100766.09;2099696;28;839;-54
2021/10/31 00:19:04;;;;;;;;;;;;;;;21.41;54.11;100766.91;2100037;28;843;-54
2021/10/31 00:20:05;;;;;;;;;;;;;;;21.42;54.80;100766.84;2099851;28;961;-54
2021/10/31 00:21:06;;;;;;;;;;;;;;;21.42;55.00;100772.22;2099869;28;957;-54
2021/10/31 00:22:06;;;;;;;;;;;;;;;21.40;54.77;100774.09;2099956;28;1048;-54
2021/10/31 00:23:06;;;;;;;;;;;;;;;21.38;54.49;100765.19;2099798;28;985;-54
2021/10/31 00:24:06;;;;;;;;;;;;;;;21.39;54.58;100763.41;2099960;28;767;-54
2021/10/31 00:25:06;;;;;;;;;;;;;;;21.39;54.77;100764.25;2099932;28;883;-55
2021/10/31 00:26:06;;;;;;;;;;;;;;;21.40;54.04;100760.63;2099926;28;783;-54
2021/10/31 00:27:07;;;;;;;;;;;;;;;21.39;54.65;100756.19;2099934;28;862;-54
2021/10/31 00:28:07;;;;;;;;;;;;;;;21.40;54.88;100749.84;2099769;28;1885;-54
2021/10/31 00:29:07;;;;;;;;;;;;;;;21.38;54.55;100746.34;2099928;28;843;-55
2021/10/31 00:30:07;;;;;;;;;;;;;;;21.39;54.28;100750.78;2099883;28;732;-54
2021/10/31 00:31:09;;;;;;;;;;;;;;;21.35;54.58;100751.84;2099923;28;977;-54
2021/10/31 00:32:09;;;;;;;;;;;;;;;21.36;54.79;100750.91;2099910;28;839;-54
2021/10/31 00:33:09;;;;;;;;;;;;;;;21.36;54.61;100740.13;2099913;28;839;-54
2021/10/31 00:34:09;;;;;;;;;;;;;;;21.38;55.16;100734.69;2099882;28;1159;-55
2021/10/31 00:35:10;;;;;;;;;;;;;;;21.38;55.35;100740.09;2099889;28;803;-54
2021/10/31 00:36:10;;;;;;;;;;;;;;;21.40;54.73;100731.00;2099571;28;784;-54
2021/10/31 00:37:10;;;;;;;;;;;;;;;21.37;54.31;100724.84;2099950;28;826;-54
2021/10/31 00:38:10;;;;;;;;;;;;;;;21.36;54.29;100718.56;2091849;28;1371;-55
2021/10/31 00:39:10;;;;;;;;;;;;;;;21.40;54.22;100716.66;2091645;28;977;-54
2021/10/31 00:40:11;;;;;;;;;;;;;;;21.35;54.67;100721.34;2091521;28;1009;-54
2021/10/31 00:41:11;;;;;;;;;;;;;;;21.39;54.18;100710.38;2091606;28;1036;-54
2021/10/31 00:42:12;;;;;;;;;;;;;;;21.37;54.51;100712.25;2091532;28;721;-55
2021/10/31 00:43:12;;;;;;;;;;;;;;;21.37;54.79;100712.25;2091585;28;1013;-55
2021/10/31 00:44:12;;;;;;;;;;;;;;;21.37;54.67;100706.84;2091364;28;1209;-55
2021/10/31 00:45:12;;;;;;;;;;;;;;;21.38;55.56;100702.38;2091586;28;1040;-54
2021/10/31 00:46:12;;;;;;;;;;;;;;;21.34;55.13;100704.28;2091439;28;788;-54
2021/10/31 00:47:13;;;;;;;;;;;;;;;21.36;54.17;100707.78;2091385;28;1890;-55
2021/10/31 00:48:13;;;;;;;;;;;;;;;21.34;54.68;100712.38;2091523;28;827;-54
2021/10/31 00:49:13;;;;;;;;;;;;;;;21.34;54.69;100706.97;2091511;28;1029;-55
2021/10/31 00:50:14;;;;;;;;;;;;;;;21.36;54.48;100704.25;2091567;28;898;-54
2021/10/31 00:51:14;;;;;;;;;;;;;;;21.36;54.90;100706.94;2091499;28;981;-55
2021/10/31 00:52:16;;;;;;;;;;;;;;;21.35;54.53;100708.72;2091445;28;839;-54
2021/10/31 00:53:16;;;;;;;;;;;;;;;21.35;55.08;100710.56;2091544;28;839;-54
2021/10/31 00:54:16;;;;;;;;;;;;;;;21.36;54.30;100702.41;2091503;28;861;-54
2021/10/31 00:55:17;;;;;;;;;;;;;;;21.35;55.51;100706.03;2091474;28;973;-55
2021/10/31 00:56:17;;;;;;;;;;;;;;;21.37;54.83;100708.69;2091292;28;1080;-54
2021/10/31 00:57:17;;;;;;;;;;;;;;;21.35;54.82;100708.72;2091537;28;811;-55
2021/10/31 00:58:18;;;;;;;;;;;;;;;21.30;55.30;100702.63;2091450;28;843;-55
2021/10/31 00:59:18;;;;;;;;;;;;;;;21.33;54.25;100708.81;2091459;28;807;-54
2021/10/31 01:00:18;;;;;;;;;;;;;;;21.31;55.24;100708.00;2091372;28;811;-54
2021/10/31 01:01:19;;;;;;;;;;;;;;;21.33;54.77;100703.41;2091505;28;969;-54
2021/10/31 01:02:20;;;;;;;;;;;;;;;21.31;55.15;100693.63;2091333;28;838;-54
2021/10/31 01:03:20;;;;;;;;;;;;;;;21.29;55.14;100691.00;2091321;28;1044;-54
2021/10/31 01:04:20;;;;;;;;;;;;;;;21.31;54.78;100678.34;2091466;28;807;-55
2021/10/31 01:05:25;;;;;;;;;;;;;;;21.31;55.31;100677.47;2091522;28;866;-54
2021/10/31 01:06:28;;;;;;;;;;;;;;;21.32;55.32;100681.91;2091417;28;894;-54
2021/10/31 01:07:42;;;;;;;;;;;;;;;21.31;54.83;100685.53;2091439;28;1948;-54
2021/10/31 01:08:51;;;;;;;;;;;;;;;21.35;54.53;100689.00;2091207;28;886;-54
2021/10/31 01:10:00;;;;;;;;;;;;;;;21.28;54.90;100681.16;2091522;28;930;-55
2021/10/31 01:11:26;;;;;;;;;;;;;;;21.32;54.71;100684.59;2091344;28;1244;-54
2021/10/31 01:12:45;;;;;;;;;;;;;;;21.32;55.08;100687.28;2094130;28;977;-54
2021/10/31 01:14:04;;;;;;;;;;;;;;;21.31;55.11;100685.53;2094237;28;882;-54
2021/10/31 01:15:04;;;;;;;;;;;;;;;21.32;54.67;100687.28;2094215;28;858;-54
2021/10/31 01:16:11;;;;;;;;;;;;;;;21.31;55.65;100685.53;2094112;28;961;-55
2021/10/31 01:17:17;;;;;;;;;;;;;;;21.29;55.62;100682.91;2093935;28;1064;-55
2021/10/31 01:18:27;;;;;;;;;;;;;;;21.30;54.85;100687.38;2093531;28;859;-54
2021/10/31 01:19:33;;;;;;;;;;;;;;;21.29;54.51;100672.16;2093716;28;1056;-54
2021/10/31 01:20:45;;;;;;;;;;;;;;;21.30;54.47;100670.31;2094173;28;847;-54
2021/10/31 01:21:50;;;;;;;;;;;;;;;21.28;54.88;100666.81;2094170;28;850;-54
2021/10/31 01:23:15;;;;;;;;;;;;;;;21.29;55.16;100661.38;2093926;28;818;-54
2021/10/31 01:24:25;;;;;;;;;;;;;;;21.28;54.89;100656.91;2094212;28;1056;-54
2021/10/31 01:25:34;;;;;;;;;;;;;;;21.27;55.33;100654.25;2094157;28;926;-54
2021/10/31 01:26:40;;;;;;;;;;;;;;;21.27;54.77;100657.84;2094178;28;838;-55
2021/10/31 01:27:49;;;;;;;;;;;;;;;21.29;55.40;100655.09;2094086;28;1960;-54
2021/10/31 01:29:08;;;;;;;;;;;;;;;21.28;54.66;100651.53;2094006;28;1325;-54
2021/10/31 01:30:35;;;;;;;;;;;;;;;21.23;55.69;100650.81;2094130;28;898;-54
2021/10/31 01:31:54;;;;;;;;;;;;;;;21.26;54.81;100644.44;2076674;28;1050;-55
2021/10/31 01:33:15;;;;;;;;;;;;;;;21.28;54.45;100639.84;2076731;28;831;-55
2021/10/31 01:34:42;;;;;;;;;;;;;;;21.28;55.35;100639.84;2076755;28;874;-54
2021/10/31 01:35:49;;;;;;;;;;;;;;;21.29;55.53;100641.63;2044441;29;1063;-54
2021/10/31 01:36:58;;;;;;;;;;;;;;;21.29;55.34;100641.63;2044338;29;927;-54
2021/10/31 01:38:01;;;;;;;;;;;;;;;21.25;55.36;100642.66;2044489;29;1565;-54
2021/10/31 01:39:04;;;;;;;;;;;;;;;21.26;55.83;100647.13;2044637;29;868;-54
2021/10/31 01:40:17;;;;;;;;;;;;;;;21.27;55.78;100648.88;2044502;29;808;-55
2021/10/31 01:41:24;;;;;;;;;;;;;;;21.27;55.25;100648.88;2044717;29;1110;-54
2021/10/31 01:42:27;;;;;;;;;;;;;;;21.27;54.98;100649.78;2044603;29;970;-54
2021/10/31 01:43:31;;;;;;;;;;;;;;;21.27;54.74;100646.19;2044681;29;1080;-54
2021/10/31 01:44:41;;;;;;;;;;;;;;;21.24;55.61;100643.59;2044458;29;753;-54
2021/10/31 01:46:01;;;;;;;;;;;;;;;21.23;55.70;100652.63;2044642;29;804;-54
2021/10/31 01:47:19;;;;;;;;;;;;;;;21.25;54.87;100650.75;2044583;29;962;-54
2021/10/31 01:48:19;;;;;;;;;;;;;;;21.24;56.01;100649.00;2044631;29;979;-55
2021/10/31 01:49:24;;;;;;;;;;;;;;;21.26;55.79;100653.41;2044531;29;884;-54
2021/10/31 01:50:32;;;;;;;;;;;;;;;21.27;55.32;100648.88;2044305;29;990;-54
2021/10/31 01:51:42;;;;;;;;;;;;;;;21.24;54.87;100640.91;2044638;29;733;-54
2021/10/31 01:52:50;;;;;;;;;;;;;;;21.27;54.79;100651.56;2044565;29;865;-55
2021/10/31 01:53:56;;;;;;;;;;;;;;;21.23;56.05;100644.53;2044348;29;940;-54
2021/10/31 01:54:59;;;;;;;;;;;;;;;21.25;55.03;100642.66;2044565;29;867;-54
2021/10/31 01:56:07;;;;;;;;;;;;;;;21.27;55.31;100643.50;2044519;29;1132;-55
2021/10/31 01:57:10;;;;;;;;;;;;;;;21.27;54.72;100638.09;2044507;29;998;-54
2021/10/31 01:58:12;;;;;;;;;;;;;;;21.23;55.20;100633.78;2044538;29;891;-54
2021/10/31 01:59:20;;;;;;;;;;;;;;;21.25;54.82;100634.59;2044323;29;1344;-54
2021/10/31 02:00:20;;;;;;;;;;;;;;;21.27;54.38;100627.31;2043484;29;1914;-55
2021/10/31 02:01:20;;;;;;;;;;;;;;;21.25;54.81;100634.59;2044584;29;785;-54
2021/10/31 02:02:22;;;;;;;;;;;;;;;21.24;55.56;100630.13;2044510;29;1017;-55
2021/10/31 02:03:23;;;;;;;;;;;;;;;21.24;55.27;100625.66;2044603;29;928;-54
2021/10/31 02:04:24;;;;;;;;;;;;;;;21.26;55.05;100630.97;2044096;29;994;-54
2021/10/31 02:05:27;;;;;;;;;;;;;;;21.25;55.92;100631.91;2044521;29;817;-55
2021/10/31 02:06:29;;;;;;;;;;;;;;;21.23;55.20;100628.38;2044473;29;896;-54
2021/10/31 02:07:29;;;;;;;;;;;;;;;21.26;55.21;100628.25;2044444;29;1914;-54
2021/10/31 02:08:30;;;;;;;;;;;;;;;21.25;55.14;100627.41;2044426;29;991;-54
2021/10/31 02:09:31;;;;;;;;;;;;;;;21.25;54.95;100618.44;2058865;28;895;-54
2021/10/31 02:10:32;;;;;;;;;;;;;;;21.23;54.99;100612.22;2060413;28;1210;-54
2021/10/31 02:11:36;;;;;;;;;;;;;;;21.23;54.80;100615.81;2060425;28;1241;-54
2021/10/31 02:12:37;;;;;;;;;;;;;;;21.22;54.91;100615.84;2060293;28;867;-54
2021/10/31 02:13:40;;;;;;;;;;;;;;;21.24;55.06;100600.50;2098475;28;922;-54
2021/10/31 02:14:40;;;;;;;;;;;;;;;21.23;55.00;100598.75;2101983;28;831;-54
2021/10/31 02:15:41;;;;;;;;;;;;;;;21.26;55.02;100594.13;2102065;28;850;-54
2021/10/31 02:16:43;;;;;;;;;;;;;;;21.27;55.43;100590.50;2102222;28;807;-55
2021/10/31 02:17:45;;;;;;;;;;;;;;;21.24;54.91;100585.25;2102301;28;921;-55
2021/10/31 02:18:46;;;;;;;;;;;;;;;21.26;54.38;100587.84;2102245;28;807;-54
2021/10/31 02:19:47;;;;;;;;;;;;;;;21.28;55.45;100594.06;2102230;28;803;-55
2021/10/31 02:20:49;;;;;;;;;;;;;;;21.26;54.98;100588.75;2101869;28;795;-55
2021/10/31 02:21:55;;;;;;;;;;;;;;;21.28;54.81;100585.97;2102234;28;776;-54
2021/10/31 02:22:56;;;;;;;;;;;;;;;21.26;54.56;100587.84;2101731;28;1005;-54
2021/10/31 02:23:57;;;;;;;;;;;;;;;21.27;54.99;100584.22;2099907;28;776;-54
2021/10/31 02:25:00;;;;;;;;;;;;;;;21.24;55.27;100581.66;2100892;28;878;-54
2021/10/31 02:26:00;;;;;;;;;;;;;;;21.23;55.24;100575.41;2100842;28;934;-54
2021/10/31 02:27:10;;;;;;;;;;;;;;;21.25;54.70;100562.75;2100894;28;799;-54
2021/10/31 02:28:10;;;;;;;;;;;;;;;21.24;55.66;100568.19;2100842;28;1894;-54
2021/10/31 02:29:10;;;;;;;;;;;;;;;21.22;54.69;100570.94;2100600;28;973;-54
2021/10/31 02:30:11;;;;;;;;;;;;;;;21.24;54.96;100566.38;2100537;28;802;-55
2021/10/31 02:31:11;;;;;;;;;;;;;;;21.24;54.54;100558.31;2100835;28;1024;-54
2021/10/31 02:32:11;;;;;;;;;;;;;;;21.25;55.41;100557.34;2100843;28;967;-54
2021/10/31 02:33:11;;;;;;;;;;;;;;;21.28;54.88;100554.53;2100851;28;1040;-54
2021/10/31 02:34:11;;;;;;;;;;;;;;;21.25;54.62;100551.97;2100879;28;755;-54
2021/10/31 02:35:12;;;;;;;;;;;;;;;21.23;55.47;100556.53;2100827;28;965;-55
2021/10/31 02:36:12;;;;;;;;;;;;;;;21.23;56.00;100547.56;2100830;28;830;-54
2021/10/31 02:37:13;;;;;;;;;;;;;;;21.27;54.88;100551.91;2100738;28;930;-55
2021/10/31 02:38:13;;;;;;;;;;;;;;;21.26;54.78;100547.44;2100767;28;1323;-54
2021/10/31 02:39:13;;;;;;;;;;;;;;;21.28;55.11;100543.75;2100693;28;1024;-54
2021/10/31 02:40:16;;;;;;;;;;;;;;;21.28;54.38;100545.56;2100816;28;993;-54
2021/10/31 02:41:17;;;;;;;;;;;;;;;21.25;54.77;100545.69;2100810;28;792;-54
2021/10/31 02:42:17;;;;;;;;;;;;;;;21.24;54.82;100543.94;2100726;28;874;-55
2021/10/31 02:43:17;;;;;;;;;;;;;;;21.27;55.27;100546.50;2100125;28;970;-54
2021/10/31 02:44:17;;;;;;;;;;;;;;;21.18;54.71;100531.59;2100098;28;890;-54
2021/10/31 02:45:18;;;;;;;;;;;;;;;21.24;54.82;100534.06;2100624;28;748;-54
2021/10/31 02:46:18;;;;;;;;;;;;;;;21.24;54.47;100528.66;2100715;28;842;-54
2021/10/31 02:47:26;;;;;;;;;;;;;;;21.23;55.67;100531.41;2100524;28;1890;-54
2021/10/31 02:48:26;;;;;;;;;;;;;;;21.23;54.91;100524.22;2100718;28;918;-54
2021/10/31 02:49:28;;;;;;;;;;;;;;;21.24;54.63;100519.69;2100733;28;788;-55
2021/10/31 02:50:30;;;;;;;;;;;;;;;21.23;55.37;100517.94;2100657;28;862;-54
2021/10/31 02:51:31;;;;;;;;;;;;;;;;;;2100799;28;1119;-54
2021/10/31 02:52:39;;;;;;;;;;;;;;;21.23;55.37;100515.25;2100691;28;874;-55
2021/10/31 02:53:47;;;;;;;;;;;;;;;21.23;55.69;100516.13;2100642;28;1001;-54
2021/10/31 02:55:05;;;;;;;;;;;;;;;21.26;54.83;100521.41;2100661;28;874;-54
2021/10/31 02:56:09;;;;;;;;;;;;;;;21.25;54.98;100524.13;2100462;28;1159;-54
2021/10/31 02:57:13;;;;;;;;;;;;;;;21.22;55.51;100524.25;2100687;28;902;-55
2021/10/31 02:58:29;;;;;;;;;;;;;;;21.19;55.27;100514.50;2100541;28;784;-55
2021/10/31 02:59:36;;;;;;;;;;;;;;;21.23;54.52;100516.13;2100588;28;847;-55
2021/10/31 03:00:37;;;;;;;;;;;;;;;21.27;55.28;100516.88;2100677;28;916;-54
2021/10/31 03:01:39;;;;;;;;;;;;;;;21.22;54.39;100516.19;2100588;28;890;-54
2021/10/31 03:02:39;;;;;;;;;;;;;;;21.25;54.84;100518.75;2100579;28;977;-54
2021/10/31 03:03:40;;;;;;;;;;;;;;;21.24;55.00;100507.13;2100548;28;1327;-54
2021/10/31 03:04:41;;;;;;;;;;;;;;;21.25;55.21;100507.97;2100475;28;886;-54
2021/10/31 03:05:46;;;;;;;;;;;;;;;21.25;54.50;100507.97;2100595;28;977;-54
2021/10/31 03:06:46;;;;;;;;;;;;;;;21.23;55.17;100508.06;2100387;28;978;-54
2021/10/31 03:07:46;;;;;;;;;;;;;;;21.23;55.61;100513.44;2100570;28;1910;-54
2021/10/31 03:08:47;;;;;;;;;;;;;;;21.22;55.36;100518.88;2100568;28;827;-54
2021/10/31 03:09:48;;;;;;;;;;;;;;;21.22;55.22;100510.78;2100252;28;810;-54
2021/10/31 03:10:49;;;;;;;;;;;;;;;21.23;55.66;100504.47;2100430;28;1176;-54
2021/10/31 03:11:49;;;;;;;;;;;;;;;;;;2100620;28;783;-54
2021/10/31 03:12:50;;;;;;;;;;;;;;;21.22;55.76;100500.03;2100564;28;835;-54
2021/10/31 03:13:50;;;;;;;;;;;;;;;21.23;54.88;100493.69;2100513;28;878;-54
2021/10/31 03:14:50;;;;;;;;;;;;;;;;;;2100388;28;1009;-54
2021/10/31 03:15:51;;;;;;;;;;;;;;;21.23;55.36;100491.00;2100441;28;799;-54
2021/10/31 03:16:51;;;;;;;;;;;;;;;21.18;55.02;100484.03;2100415;28;1609;-54
2021/10/31 03:17:51;;;;;;;;;;;;;;;;;;2100310;28;1156;-54
2021/10/31 03:18:51;;;;;;;;;;;;;;;21.18;55.63;100483.13;2100491;28;1190;-54
2021/10/31 03:19:52;;;;;;;;;;;;;;;21.18;55.69;100477.75;2100501;28;898;-54
2021/10/31 03:20:52;;;;;;;;;;;;;;;;;;2100086;28;861;-54
2021/10/31 03:21:52;;;;;;;;;;;;;;;21.22;55.58;100473.09;2099769;28;866;-54
2021/10/31 03:22:52;;;;;;;;;;;;;;;21.19;55.47;100466.03;2099862;28;1024;-54
2021/10/31 03:23:52;;;;;;;;;;;;;;;21.22;55.00;100470.38;2100555;28;826;-54
2021/10/31 03:24:52;;;;;;;;;;;;;;;;;;2100426;28;914;-54
2021/10/31 03:25:53;;;;;;;;;;;;;;;21.22;54.94;100484.75;2100431;28;858;-55
2021/10/31 03:26:53;;;;;;;;;;;;;;;21.20;54.80;100469.59;2100184;28;905;-55
2021/10/31 03:27:53;;;;;;;;;;;;;;;21.23;54.52;100469.44;2100410;28;1897;-54
2021/10/31 03:28:53;;;;;;;;;;;;;;;21.17;55.48;100465.22;2100463;28;736;-54
2021/10/31 03:29:53;;;;;;;;;;;;;;;21.20;54.97;100462.38;2100197;28;985;-54
2021/10/31 03:30:54;;;;;;;;;;;;;;;21.22;55.78;100470.38;2100367;28;799;-54
2021/10/31 03:31:54;;;;;;;;;;;;;;;21.23;54.73;100455.97;2100429;28;791;-55
2021/10/31 03:32:54;;;;;;;;;;;;;;;21.18;55.25;100457.09;2100330;28;1047;-54
2021/10/31 03:33:54;;;;;;;;;;;;;;;21.17;54.65;100458.03;2100381;28;846;-54
2021/10/31 03:34:55;;;;;;;;;;;;;;;21.18;55.17;100461.56;2099911;28;1029;-54
2021/10/31 03:35:57;;;;;;;;;;;;;;;21.20;55.39;100451.63;2100265;28;898;-54
2021/10/31 03:36:57;;;;;;;;;;;;;;;21.19;55.72;100455.25;2100359;28;862;-54
2021/10/31 03:37:57;;;;;;;;;;;;;;;21.24;54.71;100455.03;2094222;28;1449;-54
2021/10/31 03:38:57;;;;;;;;;;;;;;;21.22;54.88;100463.19;2092149;28;846;-54
2021/10/31 03:39:58;;;;;;;;;;;;;;;21.20;55.16;100464.22;2092040;28;1028;-54
2021/10/31 03:40:58;;;;;;;;;;;;;;;21.20;55.48;100457.00;2091795;28;846;-54
2021/10/31 03:41:59;;;;;;;;;;;;;;;21.21;54.95;100463.25;2092025;28;1043;-54
2021/10/31 03:42:59;;;;;;;;;;;;;;;21.22;54.95;100454.22;2092035;28;858;-54
2021/10/31 03:43:59;;;;;;;;;;;;;;;21.18;55.69;100451.69;2091885;28;787;-55
2021/10/31 03:45:00;;;;;;;;;;;;;;;21.18;55.74;100445.41;2092108;28;814;-54
2021/10/31 03:46:00;;;;;;;;;;;;;;;21.22;55.77;100448.84;2091924;28;977;-54
2021/10/31 03:47:00;;;;;;;;;;;;;;;21.19;55.31;100447.16;2091782;28;783;-55
2021/10/31 03:48:03;;;;;;;;;;;;;;;21.19;55.71;100452.56;2091912;28;1966;-54
2021/10/31 03:49:03;;;;;;;;;;;;;;;21.20;55.46;100448.94;2092042;28;814;-55
2021/10/31 03:50:03;;;;;;;;;;;;;;;21.18;55.50;100451.69;2091972;28;763;-54
2021/10/31 03:51:04;;;;;;;;;;;;;;;21.18;55.54;100445.41;2091991;28;791;-54
2021/10/31 03:52:04;;;;;;;;;;;;;;;21.20;55.17;100446.22;2091889;28;859;-54
2021/10/31 03:53:04;;;;;;;;;;;;;;;21.16;55.83;100452.69;2091977;28;1024;-55
2021/10/31 03:54:04;;;;;;;;;;;;;;;;;;2091781;28;902;-54
2021/10/31 03:55:07;;;;;;;;;;;;;;;21.20;55.26;100445.38;2091739;28;867;-54
2021/10/31 03:56:07;;;;;;;;;;;;;;;21.22;55.62;100440.75;2091754;28;1124;-55
2021/10/31 03:57:08;;;;;;;;;;;;;;;21.20;55.46;100442.69;2091861;28;775;-54
2021/10/31 03:58:08;;;;;;;;;;;;;;;21.18;54.97;100437.34;2091732;28;803;-54
2021/10/31 03:59:08;;;;;;;;;;;;;;;21.17;56.02;100440.97;2091951;28;969;-55
2021/10/31 04:00:09;;;;;;;;;;;;;;;21.16;55.41;100432.03;2091703;28;756;-54
2021/10/31 04:01:10;;;;;;;;;;;;;;;21.20;55.70;100437.28;2091897;28;1043;-54
2021/10/31 04:02:10;;;;;;;;;;;;;;;21.18;55.02;100440.03;2091881;28;811;-54
2021/10/31 04:03:10;;;;;;;;;;;;;;;21.20;55.94;100434.59;2091907;28;812;-54
2021/10/31 04:04:11;;;;;;;;;;;;;;;21.53;54.47;100434.06;2091887;28;868;-54
2021/10/31 04:05:11;;;;;;;;;;;;;;;21.99;53.25;100426.63;2091973;28;981;-54
2021/10/31 04:06:14;;;;;;;;;;;;;;;22.14;53.04;100435.84;2091765;28;823;-54
2021/10/31 04:07:15;;;;;;;;;;;;;;;22.25;52.88;100443.44;2091979;28;985;-54
2021/10/31 04:08:15;;;;;;;;;;;;;;;22.29;52.28;100438.78;2091747;28;1965;-54
2021/10/31 04:09:15;;;;;;;;;;;;;;;22.30;52.97;100446.81;2091944;28;848;-54
2021/10/31 04:10:15;;;;;;;;;;;;;;;22.33;52.97;100443.97;2091823;28;847;-54
2021/10/31 04:11:15;;;;;;;;;;;;;;;22.38;52.03;100440.16;2091555;28;804;-55
2021/10/31 04:12:16;;;;;;;;;;;;;;;22.44;51.80;100440.78;2091882;28;1039;-54
2021/10/31 04:13:16;;;;;;;;;;;;;;;22.49;51.73;100441.44;2091882;28;707;-55
2021/10/31 04:14:16;;;;;;;;;;;;;;;22.48;51.93;100438.78;2091557;28;854;-55
2021/10/31 04:15:17;;;;;;;;;;;;;;;22.52;51.37;100432.31;2091799;28;961;-55
2021/10/31 04:16:17;;;;;;;;;;;;;;;22.49;51.33;100430.66;2091791;28;815;-54
2021/10/31 04:17:17;;;;;;;;;;;;;;;22.53;51.53;100419.69;2091454;28;842;-54
2021/10/31 04:18:17;;;;;;;;;;;;;;;22.56;51.70;100414.16;2091785;28;894;-54
2021/10/31 04:19:18;;;;;;;;;;;;;;;22.55;51.61;100413.25;2091766;28;957;-54
2021/10/31 04:20:18;;;;;;;;;;;;;;;22.60;51.30;100411.22;2091779;28;846;-54
2021/10/31 04:21:18;;;;;;;;;;;;;;;22.55;51.24;100407.88;2091725;28;981;-54
2021/10/31 04:22:18;;;;;;;;;;;;;;;22.60;51.91;100408.53;2091536;28;1209;-54
2021/10/31 04:23:18;;;;;;;;;;;;;;;22.57;51.30;100408.66;2091690;28;978;-54
2021/10/31 04:24:19;;;;;;;;;;;;;;;22.59;51.24;100408.63;2091837;28;840;-53
2021/10/31 04:25:19;;;;;;;;;;;;;;;22.58;52.21;100406.88;2091655;28;716;-53
2021/10/31 04:26:19;;;;;;;;;;;;;;;22.58;51.75;100407.72;2091743;28;850;-52
2021/10/31 04:27:19;;;;;;;;;;;;;;;22.58;51.16;100410.41;2091589;28;1882;-52
2021/10/31 04:28:19;;;;;;;;;;;;;;;22.58;51.76;100412.25;2091274;28;767;-53
2021/10/31 04:29:19;;;;;;;;;;;;;;;22.58;52.17;100407.72;2091718;28;835;-53
2021/10/31 04:30:20;;;;;;;;;;;;;;;22.59;51.33;100412.16;2091665;28;850;-54
2021/10/31 04:31:20;;;;;;;;;;;;;;;22.59;51.58;100401.38;2091732;28;1048;-55
2021/10/31 04:32:20;;;;;;;;;;;;;;;22.58;51.53;100407.72;2091712;28;769;-55
2021/10/31 04:33:20;;;;;;;;;;;;;;;22.60;51.51;100402.25;2091717;28;972;-54
2021/10/31 04:34:21;;;;;;;;;;;;;;;22.61;51.96;100395.91;2091009;28;958;-55
2021/10/31 04:35:21;;;;;;;;;;;;;;;22.63;52.07;100402.13;2090985;28;792;-54
2021/10/31 04:36:21;;;;;;;;;;;;;;;22.62;51.74;100397.66;2091610;28;990;-55
2021/10/31 04:37:21;;;;;;;;;;;;;;;22.67;51.82;100409.09;2092665;28;1197;-55
2021/10/31 04:38:30;;;;;;;;;;;;;;;22.69;51.76;100403.63;2099676;28;768;-55
2021/10/31 04:39:30;;;;;;;;;;;;;;;22.68;52.14;100401.88;2099950;28;1129;-54
2021/10/31 04:40:34;;;;;;;;;;;;;;;22.67;51.72;100398.28;2099902;28;831;-54
2021/10/31 04:41:34;;;;;;;;;;;;;;;22.63;52.02;100400.28;2099747;28;827;-55
2021/10/31 04:42:35;;;;;;;;;;;;;;;22.65;51.97;100403.78;2099857;28;882;-54
2021/10/31 04:43:35;;;;;;;;;;;;;;;22.70;51.60;100403.53;2099273;28;1625;-55
2021/10/31 04:44:36;;;;;;;;;;;;;;;22.70;51.72;100399.97;2099177;28;966;-54
2021/10/31 04:45:37;;;;;;;;;;;;;;;22.68;51.77;100385.69;2099962;28;1178;-54
2021/10/31 04:46:37;;;;;;;;;;;;;;;22.63;51.71;100388.63;2099261;28;1056;-55
2021/10/31 04:47:37;;;;;;;;;;;;;;;22.69;51.90;100387.44;2099783;28;1957;-54
2021/10/31 04:48:37;;;;;;;;;;;;;;;22.71;51.61;100380.13;2099781;28;783;-55
2021/10/31 04:49:37;;;;;;;;;;;;;;;22.65;52.79;100376.78;2099561;28;973;-55
2021/10/31 04:50:38;;;;;;;;;;;;;;;22.68;51.78;100377.56;2099758;28;771;-54
2021/10/31 04:51:40;;;;;;;;;;;;;;;22.76;51.46;100375.38;2099821;28;1021;-55
2021/10/31 04:52:43;;;;;;;;;;;;;;;22.72;51.46;100381.88;2099763;28;873;-55
2021/10/31 04:53:43;;;;;;;;;;;;;;;22.72;51.92;100382.72;2099830;28;823;-55
2021/10/31 04:54:43;;;;;;;;;;;;;;;22.71;51.81;100383.69;2099839;28;964;-55
2021/10/31 04:55:43;;;;;;;;;;;;;;;22.71;51.44;100386.38;2099850;28;1036;-54
2021/10/31 04:56:44;;;;;;;;;;;;;;;22.67;51.82;100381.22;2099670;28;1054;-55
2021/10/31 04:57:44;;;;;;;;;;;;;;;22.72;51.87;100387.28;2099603;28;1389;-55
2021/10/31 04:58:44;;;;;;;;;;;;;;;22.73;51.79;100383.63;2099736;28;851;-55
2021/10/31 04:59:44;;;;;;;;;;;;;;;22.74;51.74;100380.84;2099862;28;977;-54
2021/10/31 05:00:45;;;;;;;;;;;;;;;22.75;51.34;100377.19;2099628;28;823;-55
2021/10/31 05:01:45;;;;;;;;;;;;;;;22.74;51.81;100383.53;2099803;28;862;-55
2021/10/31 05:02:45;;;;;;;;;;;;;;;22.71;51.80;100389.09;2099788;28;791;-55
2021/10/31 05:03:46;;;;;;;;;;;;;;;22.72;51.98;100384.56;2099655;28;973;-54
2021/10/31 05:04:46;;;;;;;;;;;;;;;22.74;52.15;100382.69;2099777;28;980;-54
2021/10/31 05:05:46;;;;;;;;;;;;;;;22.82;51.00;100384.97;2099786;28;846;-55
2021/10/31 05:06:46;;;;;;;;;;;;;;;22.78;52.45;100387.84;2099410;28;1274;-54
2021/10/31 05:07:49;;;;;;;;;;;;;;;22.80;50.65;100382.38;2099733;28;1995;-55
2021/10/31 05:08:49;;;;;;;;;;;;;;;22.84;51.29;100385.78;2099707;28;810;-55
2021/10/31 05:09:49;;;;;;;;;;;;;;;22.88;50.65;100382.88;2099708;28;834;-54
2021/10/31 05:10:49;;;;;;;;;;;;;;;22.87;50.98;100380.22;2099765;28;1199;-55
2021/10/31 05:11:50;;;;;;;;;;;;;;;22.89;51.25;100381.91;2099710;28;768;-54
2021/10/31 05:12:50;;;;;;;;;;;;;;;22.90;51.38;100375.56;2099817;28;863;-54
2021/10/31 05:13:50;;;;;;;;;;;;;;;22.88;51.17;100374.75;2099753;28;1107;-55
2021/10/31 05:14:51;;;;;;;;;;;;;;;22.87;52.14;100367.63;2099643;28;843;-54
2021/10/31 05:15:51;;;;;;;;;;;;;;;22.93;51.60;100366.41;2099712;28;989;-54
2021/10/31 05:16:51;;;;;;;;;;;;;;;22.88;50.80;100369.38;2099763;28;828;-54
2021/10/31 05:17:53;;;;;;;;;;;;;;;22.87;51.46;100367.63;2099512;28;838;-55
2021/10/31 05:18:55;;;;;;;;;;;;;;;22.92;50.84;100368.25;2099758;28;845;-54
2021/10/31 05:19:55;;;;;;;;;;;;;;;22.94;50.50;100369.06;2099730;28;818;-54
2021/10/31 05:20:55;;;;;;;;;;;;;;;22.94;51.54;100365.47;2099516;28;910;-54
2021/10/31 05:21:56;;;;;;;;;;;;;;;22.92;50.88;100365.56;2099713;28;786;-54
2021/10/31 05:22:56;;;;;;;;;;;;;;;22.97;51.23;100362.59;2099673;28;854;-54
2021/10/31 05:23:56;;;;;;;;;;;;;;;22.96;50.97;100368.97;2099550;28;1028;-54
2021/10/31 05:24:56;;;;;;;;;;;;;;;22.97;50.98;100364.41;2099663;28;1040;-54
2021/10/31 05:25:56;;;;;;;;;;;;;;;23.04;50.98;100366.75;2099747;28;830;-54
2021/10/31 05:26:56;;;;;;;;;;;;;;;23.01;50.67;100369.59;2099519;28;973;-54
2021/10/31 05:27:56;;;;;;;;;;;;;;;23.03;51.06;100374.91;2099580;28;1956;-54
2021/10/31 05:28:57;;;;;;;;;;;;;;;23.01;50.94;100368.72;2099633;28;847;-54